Sacramento, California
Traffic Map
Current Weather Conditions
Sacramento, California
Clear Haze
Clear
65°
Feels Like: 65°
Wind Chill: 65° Ceiling: Unl
Heat Index: 65° Visibility: 6mi
Dew Point: 41° Wind: 0mph
Humidity: 42% Direction: ° ()
Pressure: 30.12in Gusts: 0mph
Raw Report DataKSAC 171653Z 00000KT 6SM HZ CLR 18/05 A3012 RMK AO2 SLP197 T01830050
Traffic Incident Summary
Active as of:
Severity:
Category:
InformationThere was an issue retrieving the traffic information for this location. Please try a different location or try again shortly.
Advertisements